Wetterdaten: Woche 16.04.07 - 22.04.07 (KW16)
Datum Zeit Temperatur Luftfeuchte Luftdruck Niederschlag
16.04.2007 00:00 12,9 C 40 % 1022 hPa 0,0 l/m
16.04.2007 01:00 11,9 C 43 % 1022 hPa 0,0 l/m
16.04.2007 02:00 11,3 C 46 % 1022 hPa 0,0 l/m
16.04.2007 03:00 10,6 C 48 % 1022 hPa 0,0 l/m
16.04.2007 04:00 10,2 C 51 % 1022 hPa 0,0 l/m
16.04.2007 05:00 9,5 C 55 % 1022 hPa 0,0 l/m
16.04.2007 06:00 9,1 C 57 % 1022 hPa 0,0 l/m
16.04.2007 07:00 9,6 C 56 % 1022 hPa 0,0 l/m
16.04.2007 08:00 12,0 C 48 % 1022 hPa 0,0 l/m
16.04.2007 09:00 13,8 C 45 % 1022 hPa 0,0 l/m
16.04.2007 10:00 15,7 C 40 % 1022 hPa 0,0 l/m
16.04.2007 11:00 17,6 C 37 % 1022 hPa 0,0 l/m
16.04.2007 12:00 19,1 C 34 % 1022 hPa 0,0 l/m
16.04.2007 13:00 20,6 C 31 % 1021 hPa 0,0 l/m
16.04.2007 14:00 22,0 C 26 % 1021 hPa 0,0 l/m
16.04.2007 15:00 22,2 C 24 % 1021 hPa 0,0 l/m
16.04.2007 16:00 22,2 C 24 % 1020 hPa 0,0 l/m
16.04.2007 17:00 22,2 C 24 % 1020 hPa 0,0 l/m
16.04.2007 18:00 21,7 C 25 % 1020 hPa 0,0 l/m
16.04.2007 19:00 20,4 C 26 % 1020 hPa 0,0 l/m
16.04.2007 20:00 18,1 C 32 % 1020 hPa 0,0 l/m
16.04.2007 21:00 15,1 C 37 % 1021 hPa 0,0 l/m
16.04.2007 22:00 13,8 C 41 % 1021 hPa 0,0 l/m
16.04.2007 23:00 12,8 C 44 % 1020 hPa 0,0 l/m
17.04.2007 00:00 11,3 C 48 % 1020 hPa 0,0 l/m
17.04.2007 01:00 10,1 C 53 % 1020 hPa 0,0 l/m
17.04.2007 02:00 9,4 C 54 % 1020 hPa 0,0 l/m
17.04.2007 03:00 9,3 C 52 % 1020 hPa 0,0 l/m
17.04.2007 04:00 9,0 C 53 % 1020 hPa 0,0 l/m
17.04.2007 05:00 7,9 C 59 % 1019 hPa 0,0 l/m
17.04.2007 06:00 6,7 C 65 % 1019 hPa 0,0 l/m
17.04.2007 07:00 7,6 C 68 % 1020 hPa 0,0 l/m
17.04.2007 08:00 11,2 C 53 % 1020 hPa 0,0 l/m
17.04.2007 09:00 15,1 C 39 % 1020 hPa 0,0 l/m
17.04.2007 10:00 18,1 C 34 % 1020 hPa 0,0 l/m
17.04.2007 11:00 20,5 C 26 % 1020 hPa 0,0 l/m
17.04.2007 12:00 21,2 C 23 % 1020 hPa 0,0 l/m
17.04.2007 13:00 21,9 C 23 % 1019 hPa 0,0 l/m
17.04.2007 14:00 23,0 C 21 % 1019 hPa 0,0 l/m
17.04.2007 15:00 23,6 C 19 % 1019 hPa 0,0 l/m
17.04.2007 16:00 23,5 C 18 % 1018 hPa 0,0 l/m
17.04.2007 17:00 23,2 C 18 % 1018 hPa 0,0 l/m
17.04.2007 18:00 23,3 C 18 % 1017 hPa 0,0 l/m
17.04.2007 19:00 21,6 C 23 % 1017 hPa 0,0 l/m
17.04.2007 20:00 18,1 C 27 % 1018 hPa 0,0 l/m
17.04.2007 21:00 15,6 C 35 % 1018 hPa 0,0 l/m
17.04.2007 22:00 13,7 C 42 % 1018 hPa 0,0 l/m
17.04.2007 23:00 12,1 C 47 % 1018 hPa 0,0 l/m
18.04.2007 00:00 11,5 C 49 % 1018 hPa 0,0 l/m
18.04.2007 01:00 12,0 C 59 % 1019 hPa 0,0 l/m
18.04.2007 02:00 12,4 C 69 % 1019 hPa 0,0 l/m
18.04.2007 03:00 11,8 C 72 % 1019 hPa 0,0 l/m
18.04.2007 04:00 11,1 C 74 % 1020 hPa 0,0 l/m
18.04.2007 05:00 10,6 C 76 % 1020 hPa 0,0 l/m
18.04.2007 06:00 10,1 C 75 % 1020 hPa 0,0 l/m
18.04.2007 07:00 10,1 C 68 % 1021 hPa 0,0 l/m
18.04.2007 08:00 10,1 C 64 % 1021 hPa 0,0 l/m
18.04.2007 09:00 10,2 C 65 % 1021 hPa 0,0 l/m
18.04.2007 10:00 10,8 C 62 % 1022 hPa 0,0 l/m
18.04.2007 11:00 11,9 C 56 % 1022 hPa 0,0 l/m
18.04.2007 12:00 13,1 C 49 % 1021 hPa 0,0 l/m
18.04.2007 13:00 14,4 C 42 % 1021 hPa 0,0 l/m
18.04.2007 14:00 15,3 C 35 % 1021 hPa 0,0 l/m
18.04.2007 15:00 15,5 C 33 % 1021 hPa 0,0 l/m
18.04.2007 16:00 15,1 C 30 % 1021 hPa 0,0 l/m
18.04.2007 17:00 15,0 C 30 % 1021 hPa 0,0 l/m
18.04.2007 18:00 14,7 C 30 % 1021 hPa 0,0 l/m
18.04.2007 19:00 12,8 C 34 % 1021 hPa 0,0 l/m
18.04.2007 20:00 10,9 C 39 % 1022 hPa 0,0 l/m
18.04.2007 21:00 9,2 C 45 % 1022 hPa 0,0 l/m
18.04.2007 22:00 8,7 C 48 % 1023 hPa 0,0 l/m
18.04.2007 23:00 7,6 C 51 % 1023 hPa 0,0 l/m
19.04.2007 00:00 6,2 C 59 % 1022 hPa 0,0 l/m
19.04.2007 01:00 5,4 C 66 % 1022 hPa 0,0 l/m
19.04.2007 02:00 5,1 C 68 % 1022 hPa 0,0 l/m
19.04.2007 03:00 4,6 C 69 % 1022 hPa 0,0 l/m
19.04.2007 04:00 3,9 C 69 % 1022 hPa 0,0 l/m
19.04.2007 05:00 3,3 C 71 % 1022 hPa 0,0 l/m
19.04.2007 06:00 2,7 C 74 % 1021 hPa 0,0 l/m
19.04.2007 07:00 3,1 C 75 % 1022 hPa 0,0 l/m
19.04.2007 08:00 5,8 C 64 % 1022 hPa 0,0 l/m
19.04.2007 09:00 8,9 C 49 % 1021 hPa 0,0 l/m
19.04.2007 10:00 11,5 C 41 % 1021 hPa 0,0 l/m
19.04.2007 11:00 13,4 C 37 % 1021 hPa 0,0 l/m
19.04.2007 12:00 14,5 C 36 % 1020 hPa 0,0 l/m
19.04.2007 13:00 15,5 C 33 % 1020 hPa 0,0 l/m
19.04.2007 14:00 17,0 C 29 % 1019 hPa 0,0 l/m
19.04.2007 15:00 18,1 C 26 % 1018 hPa 0,0 l/m
19.04.2007 16:00 18,6 C 25 % 1018 hPa 0,0 l/m
19.04.2007 17:00 18,6 C 25 % 1017 hPa 0,0 l/m
19.04.2007 18:00 18,5 C 25 % 1017 hPa 0,0 l/m
19.04.2007 19:00 16,9 C 27 % 1017 hPa 0,0 l/m
19.04.2007 20:00 14,0 C 35 % 1017 hPa 0,0 l/m
19.04.2007 21:00 11,3 C 41 % 1018 hPa 0,0 l/m
19.04.2007 22:00 9,3 C 49 % 1018 hPa 0,0 l/m
19.04.2007 23:00 7,9 C 53 % 1018 hPa 0,0 l/m
20.04.2007 00:00 7,0 C 55 % 1018 hPa 0,0 l/m
20.04.2007 01:00 6,2 C 58 % 1018 hPa 0,0 l/m
20.04.2007 02:00 5,2 C 63 % 1018 hPa 0,0 l/m
20.04.2007 03:00 4,4 C 67 % 1018 hPa 0,0 l/m
20.04.2007 04:00 3,6 C 69 % 1018 hPa 0,0 l/m
20.04.2007 05:00 2,9 C 75 % 1018 hPa 0,0 l/m
20.04.2007 06:00 2,5 C 76 % 1018 hPa 0,0 l/m
20.04.2007 07:00 3,7 C 75 % 1019 hPa 0,0 l/m
20.04.2007 08:00 7,9 C 59 % 1019 hPa 0,0 l/m
20.04.2007 09:00 12,1 C 41 % 1020 hPa 0,0 l/m
20.04.2007 10:00 14,1 C 37 % 1020 hPa 0,0 l/m
20.04.2007 11:00 15,9 C 34 % 1020 hPa 0,0 l/m
20.04.2007 12:00 16,8 C 34 % 1020 hPa 0,0 l/m
20.04.2007 13:00 17,7 C 32 % 1020 hPa 0,0 l/m
20.04.2007 14:00 18,8 C 29 % 1019 hPa 0,0 l/m
20.04.2007 15:00 19,5 C 28 % 1019 hPa 0,0 l/m
20.04.2007 16:00 19,5 C 28 % 1019 hPa 0,0 l/m
20.04.2007 17:00 19,5 C 28 % 1019 hPa 0,0 l/m
20.04.2007 18:00 19,2 C 29 % 1018 hPa 0,0 l/m
20.04.2007 19:00 17,6 C 31 % 1019 hPa 0,0 l/m
20.04.2007 20:00 15,4 C 35 % 1019 hPa 0,0 l/m
20.04.2007 21:00 13,1 C 40 % 1020 hPa 0,0 l/m
20.04.2007 22:00 10,9 C 48 % 1020 hPa 0,0 l/m
20.04.2007 23:00 9,7 C 52 % 1020 hPa 0,0 l/m
21.04.2007 00:00 8,5 C 58 % 1020 hPa 0,0 l/m
21.04.2007 01:00 7,7 C 60 % 1020 hPa 0,0 l/m
21.04.2007 02:00 7,1 C 65 % 1020 hPa 0,0 l/m
21.04.2007 03:00 6,4 C 68 % 1020 hPa 0,0 l/m
21.04.2007 04:00 6,0 C 69 % 1020 hPa 0,0 l/m
21.04.2007 05:00 5,4 C 68 % 1020 hPa 0,0 l/m
21.04.2007 06:00 4,7 C 70 % 1020 hPa 0,0 l/m
21.04.2007 07:00 4,9 C 70 % 1021 hPa 0,0 l/m
21.04.2007 08:00 7,0 C 64 % 1021 hPa 0,0 l/m
21.04.2007 09:00 10,1 C 53 % 1021 hPa 0,0 l/m
21.04.2007 10:00 13,1 C 47 % 1021 hPa 0,0 l/m
21.04.2007 11:00 15,5 C 42 % 1021 hPa 0,0 l/m
21.04.2007 12:00 17,4 C 38 % 1020 hPa 0,0 l/m
21.04.2007 13:00 18,9 C 34 % 1020 hPa 0,0 l/m
21.04.2007 14:00 20,1 C 32 % 1020 hPa 0,0 l/m
21.04.2007 15:00 20,7 C 31 % 1020 hPa 0,0 l/m
21.04.2007 16:00 20,9 C 29 % 1019 hPa 0,0 l/m
21.04.2007 17:00 21,0 C 27 % 1019 hPa 0,0 l/m
21.04.2007 18:00 20,5 C 28 % 1019 hPa 0,0 l/m
21.04.2007 19:00 19,2 C 32 % 1019 hPa 0,0 l/m
21.04.2007 20:00 17,0 C 35 % 1020 hPa 0,0 l/m
21.04.2007 21:00 14,5 C 42 % 1021 hPa 0,0 l/m
21.04.2007 22:00 12,5 C 49 % 1021 hPa 0,0 l/m
21.04.2007 23:00 11,4 C 51 % 1021 hPa 0,0 l/m
22.04.2007 00:00 10,3 C 55 % 1021 hPa 0,0 l/m
22.04.2007 01:00 9,3 C 58 % 1021 hPa 0,0 l/m
22.04.2007 02:00 8,4 C 58 % 1021 hPa 0,0 l/m
22.04.2007 03:00 7,6 C 59 % 1021 hPa 0,0 l/m
22.04.2007 04:00 6,8 C 60 % 1021 hPa 0,0 l/m
22.04.2007 05:00 6,2 C 60 % 1022 hPa 0,0 l/m
22.04.2007 06:00 5,5 C 63 % 1022 hPa 0,0 l/m
22.04.2007 07:00 6,1 C 63 % 1023 hPa 0,0 l/m
22.04.2007 08:00 8,9 C 53 % 1023 hPa 0,0 l/m
22.04.2007 09:00 12,0 C 48 % 1023 hPa 0,0 l/m
22.04.2007 10:00 16,0 C 41 % 1023 hPa 0,0 l/m
22.04.2007 11:00 18,8 C 36 % 1023 hPa 0,0 l/m
22.04.2007 12:00 20,3 C 34 % 1023 hPa 0,0 l/m
22.04.2007 13:00 21,8 C 32 % 1023 hPa 0,0 l/m
22.04.2007 14:00 22,9 C 27 % 1022 hPa 0,0 l/m
22.04.2007 15:00 23,1 C 26 % 1022 hPa 0,0 l/m
22.04.2007 16:00 23,4 C 23 % 1022 hPa 0,0 l/m
22.04.2007 17:00 23,7 C 22 % 1021 hPa 0,0 l/m
22.04.2007 18:00 23,3 C 22 % 1021 hPa 0,0 l/m
22.04.2007 19:00 21,6 C 25 % 1021 hPa 0,0 l/m
22.04.2007 20:00 19,3 C 33 % 1022 hPa 0,0 l/m
22.04.2007 21:00 16,2 C 42 % 1022 hPa 0,0 l/m
22.04.2007 22:00 14,6 C 47 % 1023 hPa 0,0 l/m
22.04.2007 23:00 13,8 C 50 % 1023 hPa 0,0 l/m
Min-Datum _ 20.04.07 17.04.07 17.04.07 -
_ Min-Zeit 06:41 15:23 17:22 -
Minimum _ 2,4 C 18 % 1017 hPa -
Max-Datum _ 22.04.07 18.04.07 18.04.07 16.04.07
_ Max-Zeit 17:40 05:46 22:07 00:00
Maximum _ 24,0 C 77 % 1023 hPa 0,0 l/m
Durchschnitt _ 13,4 C 45 % 1021 hPa #0,0 l/m

Durchschnitt Minimum Temp.12,7 C
Durchschnitt Maximum Temp.14,0 C